Time;durP1;ratioP1;P1;durP2;ratioP2;P2;SDS_P1;SDS_P2;PMS_P1;PMS_P2;Temp;Humidity;BMP_temperature;BMP_pressure;BME280_temperature;BME280_humidity;BME280_pressure;Samples;Min_cycle;Max_cycle;Signal;HPM_P1;HPM_P2
2021/03/25 00:01:30;;;;;;;32.45;15.38;;;5.40;9.10;;;;;;5086527;28;20139;-78
2021/03/25 00:03:58;;;;;;;28.30;14.65;;;5.60;7.80;;;;;;5090143;28;20498;-77
2021/03/25 00:06:26;;;;;;;28.85;14.32;;;5.60;7.80;;;;;;5087098;28;20056;-79
2021/03/25 00:08:53;;;;;;;23.77;14.32;;;5.60;7.20;;;;;;5090948;28;20055;-79
2021/03/25 00:11:21;;;;;;;29.13;14.57;;;5.50;7.50;;;;;;5083715;28;20055;-79
2021/03/25 00:13:49;;;;;;;28.80;14.30;;;5.40;8.00;;;;;;5090622;28;20048;-78
2021/03/25 00:16:16;;;;;;;24.48;14.52;;;5.60;7.20;;;;;;5093338;28;20048;-78
2021/03/25 00:18:43;;;;;;;26.75;13.85;;;5.60;7.00;;;;;;5093851;28;20134;-79
2021/03/25 00:21:12;;;;;;;25.20;14.50;;;5.60;7.00;;;;;;5085328;28;20466;-79
2021/03/25 00:23:41;;;;;;;26.05;15.13;;;5.50;7.10;;;;;;5093717;28;20109;-79
2021/03/25 00:26:08;;;;;;;29.40;13.85;;;5.40;7.20;;;;;;5093789;28;20047;-80
2021/03/25 00:28:35;;;;;;;21.67;13.95;;;5.50;7.70;;;;;;5093956;28;20127;-80
2021/03/25 00:31:03;;;;;;;28.80;16.05;;;5.40;7.40;;;;;;5086468;28;20497;-78
2021/03/25 00:33:30;;;;;;;24.02;13.65;;;5.20;8.00;;;;;;5091021;28;20056;-79
2021/03/25 00:35:57;;;;;;;22.45;13.27;;;5.20;9.10;;;;;;5093898;28;20048;-79
2021/03/25 00:38:24;;;;;;;25.48;14.63;;;5.20;8.90;;;;;;5093213;28;20505;-79
2021/03/25 00:40:51;;;;;;;28.02;13.52;;;5.10;9.00;;;;;;5085382;28;20048;-79
2021/03/25 00:43:21;;;;;;;26.10;14.63;;;5.10;9.00;;;;;;5093012;28;20506;-79
2021/03/25 00:45:49;;;;;;;28.50;15.13;;;5.00;9.00;;;;;;5094211;28;20048;-79
2021/03/25 00:48:21;;;;;;;24.13;15.30;;;4.90;10.20;;;;;;5091861;28;20409;-79
2021/03/25 00:50:51;;;;;;;25.88;14.48;;;4.80;10.20;;;;;;5086186;28;20043;-79
2021/03/25 00:53:20;;;;;;;29.67;15.02;;;4.80;10.90;;;;;;5088339;28;20563;-79
2021/03/25 00:55:47;;;;;;;24.63;15.63;;;4.80;10.70;;;;;;5089529;28;20044;-79
2021/03/25 00:58:16;;;;;;;27.73;15.75;;;4.80;11.20;;;;;;5093119;28;20158;-79
2021/03/25 01:00:45;;;;;;;29.27;15.32;;;4.70;11.60;;;;;;5086930;28;20602;-80
2021/03/25 01:03:14;;;;;;;28.38;16.10;;;4.70;12.10;;;;;;5091742;28;20478;-79
2021/03/25 01:05:43;;;;;;;29.83;15.50;;;4.70;11.90;;;;;;5093067;28;20044;-79
2021/03/25 01:08:10;;;;;;;32.33;17.23;;;4.50;12.30;;;;;;5092720;28;20046;-79
2021/03/25 01:10:40;;;;;;;26.13;16.23;;;4.40;12.80;;;;;;5086155;28;20151;-78
2021/03/25 01:13:09;;;;;;;28.35;15.20;;;4.30;13.20;;;;;;5092103;28;20130;-79
2021/03/25 01:15:37;;;;;;;27.60;14.93;;;4.20;14.50;;;;;;5090268;28;20553;-78
2021/03/25 01:18:06;;;;;;;25.25;15.85;;;4.20;14.70;;;;;;5091177;28;20048;-78
2021/03/25 01:20:35;;;;;;;29.52;15.35;;;4.10;15.50;;;;;;5081645;28;20441;-77
2021/03/25 01:23:04;;;;;;;29.52;15.65;;;4.10;15.50;;;;;;5091616;28;20055;-79
2021/03/25 01:25:32;;;;;;;30.40;16.60;;;4.00;15.50;;;;;;5091494;28;20498;-78
2021/03/25 01:28:00;;;;;;;30.70;16.98;;;3.90;16.10;;;;;;5091338;28;20139;-78
2021/03/25 01:30:30;;;;;;;30.20;16.88;;;3.90;17.20;;;;;;5086375;28;20048;-79
2021/03/25 01:32:58;;;;;;;29.55;17.45;;;4.00;17.50;;;;;;5090556;28;20044;-79
2021/03/25 01:35:26;;;;;;;27.73;16.35;;;4.00;17.20;;;;;;5091243;28;20056;-78
2021/03/25 01:37:53;;;;;;;32.20;17.70;;;3.90;17.70;;;;;;5092110;28;20044;-79
2021/03/25 01:40:25;;;;;;;28.65;17.75;;;3.90;17.70;;;;;;5081821;28;20056;-80
2021/03/25 01:43:06;;;;;;;30.85;17.40;;;3.80;18.50;;;;;;5090425;28;20055;-78
2021/03/25 01:45:46;;;;;;;30.00;16.77;;;3.80;19.10;;;;;;5091420;28;20058;-78
2021/03/25 01:48:14;;;;;;;29.08;17.55;;;3.90;19.20;;;;;;5087820;28;20119;-78
2021/03/25 01:50:42;;;;;;;24.02;16.25;;;3.90;19.40;;;;;;5085154;28;20086;-79
2021/03/25 01:53:23;;;;;;;28.15;17.17;;;4.00;18.80;;;;;;5091122;28;20084;-79
2021/03/25 01:55:59;;;;;;;25.10;15.70;;;3.90;18.30;;;;;;5088828;28;20464;-79
2021/03/25 01:58:51;;;;;;;26.83;15.70;;;4.00;18.50;;;;;;5089556;28;20135;-78
2021/03/25 02:01:27;;;;;;;31.27;17.05;;;4.00;18.00;;;;;;5084104;28;20051;-78
2021/03/25 02:04:19;;;;;;;32.50;16.60;;;4.30;17.20;;;;;;5087817;28;20130;-78
2021/03/25 02:06:56;;;;;;;30.45;15.95;;;4.20;15.60;;;;;;5088335;28;20409;-79
2021/03/25 02:09:33;;;;;;;26.70;16.27;;;4.20;16.50;;;;;;5091251;28;20048;-79
2021/03/25 02:12:07;;;;;;;26.05;15.55;;;4.30;16.20;;;;;;5084344;28;20158;-78
2021/03/25 02:14:40;;;;;;;27.88;16.23;;;4.20;15.70;;;;;;5090436;28;20066;-79
2021/03/25 02:17:12;;;;;;;27.23;15.30;;;4.10;15.90;;;;;;5088343;28;20046;-78
2021/03/25 02:20:03;;;;;;;29.02;16.15;;;4.10;15.50;;;;;;5090499;28;20098;-78
2021/03/25 02:22:56;;;;;;;29.25;15.80;;;4.00;15.70;;;;;;5088189;28;20040;-79
2021/03/25 02:25:27;;;;;;;29.75;16.75;;;4.00;16.50;;;;;;5087629;28;20063;-76
2021/03/25 02:28:03;;;;;;;28.20;15.82;;;3.90;16.30;;;;;;5089901;28;20044;-77
2021/03/25 02:30:37;;;;;;;27.42;15.85;;;3.90;17.30;;;;;;5080294;28;20563;-77
2021/03/25 02:33:07;;;;;;;;;;;3.80;17.80;;;;;;5090085;28;20131;-76
2021/03/25 02:35:38;;;;;;;28.55;16.42;;;3.80;17.20;;;;;;5089323;28;19970;-75
2021/03/25 02:38:11;;;;;;;26.70;16.58;;;3.80;16.90;;;;;;5089055;28;20413;-77
2021/03/25 02:40:42;;;;;;;32.38;17.10;;;3.70;17.40;;;;;;5083609;28;20043;-76
2021/03/25 02:43:13;;;;;;;29.77;16.90;;;3.70;17.70;;;;;;5089209;28;20052;-77
2021/03/25 02:45:45;;;;;;;30.17;15.30;;;3.60;17.80;;;;;;5089872;28;20052;-75
2021/03/25 02:48:17;;;;;;;28.35;17.25;;;3.60;18.00;;;;;;5084928;28;20039;-75
2021/03/25 02:50:49;;;;;;;28.13;15.80;;;3.50;18.10;;;;;;5081809;28;20484;-77
2021/03/25 02:53:22;;;;;;;32.22;15.73;;;3.60;18.70;;;;;;5091604;28;20091;-76
2021/03/25 02:55:50;;;;;;;25.02;15.60;;;3.70;17.80;;;;;;5089022;28;20059;-76
2021/03/25 02:58:21;;;;;;;26.77;16.00;;;3.60;17.70;;;;;;5089737;28;20051;-76
2021/03/25 03:00:54;;;;;;;26.73;15.20;;;3.60;17.90;;;;;;5080274;28;20163;-75
2021/03/25 03:03:27;;;;;;;30.48;16.63;;;3.60;18.30;;;;;;5085716;28;20055;-75
2021/03/25 03:05:54;;;;;;;24.05;14.95;;;3.50;18.00;;;;;;5087654;28;20494;-77
2021/03/25 03:08:25;;;;;;;29.52;15.90;;;3.50;18.50;;;;;;5088967;28;20048;-76
2021/03/25 03:10:55;;;;;;;26.33;15.32;;;3.40;18.90;;;;;;5083377;28;20493;-76
2021/03/25 03:13:24;;;;;;;26.20;15.38;;;3.50;19.50;;;;;;5082351;28;20058;-76
2021/03/25 03:15:55;;;;;;;28.98;15.70;;;3.40;19.00;;;;;;5089015;28;20131;-76
2021/03/25 03:18:28;;;;;;;27.45;15.23;;;3.40;19.40;;;;;;5084731;28;20048;-77
2021/03/25 03:20:59;;;;;;;26.58;15.43;;;3.40;19.30;;;;;;5083100;28;20109;-77
2021/03/25 03:23:30;;;;;;;32.25;16.02;;;3.30;19.60;;;;;;5086153;28;20050;-78
2021/03/25 03:26:00;;;;;;;23.50;14.65;;;3.30;20.10;;;;;;5089178;28;20070;-76
2021/03/25 03:28:31;;;;;;;25.70;15.38;;;3.30;20.40;;;;;;5086267;28;20044;-76
2021/03/25 03:31:02;;;;;;;25.40;14.82;;;3.30;20.60;;;;;;5082076;28;20128;-75
2021/03/25 03:33:33;;;;;;;25.50;15.88;;;3.20;20.30;;;;;;5086616;28;20044;-76
2021/03/25 03:36:04;;;;;;;24.58;14.07;;;3.30;20.90;;;;;;5086231;28;20051;-76
2021/03/25 03:38:36;;;;;;;24.33;13.77;;;3.40;20.70;;;;;;5089665;28;20513;-77
2021/03/25 03:41:04;;;;;;;24.73;15.27;;;3.50;20.20;;;;;;5081275;28;20054;-78
2021/03/25 03:43:34;;;;;;;23.42;13.57;;;3.50;19.30;;;;;;5085305;28;20052;-77
2021/03/25 03:46:05;;;;;;;21.33;12.95;;;3.50;18.50;;;;;;5088018;28;20059;-77
2021/03/25 03:48:38;;;;;;;26.17;13.63;;;3.40;19.10;;;;;;5089908;28;20040;-77
2021/03/25 03:51:08;;;;;;;23.13;13.70;;;3.40;19.70;;;;;;5085526;28;20048;-76
2021/03/25 03:53:37;;;;;;;22.83;13.40;;;3.20;19.50;;;;;;5091068;28;20055;-77
2021/03/25 03:56:15;;;;;;;22.95;12.80;;;3.30;19.80;;;;;;5092889;28;20130;-77
2021/03/25 03:58:46;;;;;;;23.30;13.60;;;3.20;20.00;;;;;;5090284;28;20044;-76
2021/03/25 04:01:20;;;;;;;26.52;13.85;;;3.30;19.70;;;;;;5084216;28;20498;-76
2021/03/25 04:03:50;;;;;;;23.80;13.13;;;3.40;19.20;;;;;;5090050;28;20071;-76
2021/03/25 04:06:23;;;;;;;19.73;12.95;;;3.40;19.10;;;;;;5092850;28;20571;-77
2021/03/25 04:08:59;;;;;;;28.45;13.25;;;3.50;19.00;;;;;;5084785;28;20052;-76
2021/03/25 04:11:31;;;;;;;19.30;11.40;;;3.40;18.40;;;;;;5086544;28;20135;-76
2021/03/25 04:14:02;;;;;;;22.45;13.15;;;3.50;19.20;;;;;;5090688;28;20052;-76
2021/03/25 04:16:31;;;;;;;21.00;12.50;;;3.50;17.90;;;;;;5093604;28;20174;-75
2021/03/25 04:19:07;;;;;;;20.98;12.38;;;3.50;17.90;;;;;;5093415;28;20481;-77
2021/03/25 04:21:38;;;;;;;20.88;12.73;;;3.40;17.50;;;;;;5082866;28;20452;-75
2021/03/25 04:24:09;;;;;;;22.23;12.38;;;3.40;18.30;;;;;;5092756;28;20093;-75
2021/03/25 04:26:43;;;;;;;21.13;12.13;;;3.30;17.90;;;;;;5092580;28;20568;-75
2021/03/25 04:29:15;;;;;;;23.00;12.93;;;3.20;18.40;;;;;;5093044;28;20699;-76
2021/03/25 04:31:43;;;;;;;24.23;12.95;;;3.10;19.20;;;;;;5087884;28;20066;-76
2021/03/25 04:34:11;;;;;;;23.17;13.38;;;3.00;19.90;;;;;;5092045;28;20079;-76
2021/03/25 04:36:42;;;;;;;21.52;12.07;;;3.00;20.10;;;;;;5089717;28;20147;-76
2021/03/25 04:39:11;;;;;;;21.50;13.30;;;3.10;20.90;;;;;;5093078;28;20062;-76
2021/03/25 04:41:42;;;;;;;22.90;12.90;;;3.00;20.40;;;;;;5087599;28;20044;-76
2021/03/25 04:44:31;;;;;;;23.27;13.98;;;3.10;20.70;;;;;;5092171;28;20626;-77
2021/03/25 04:47:04;;;;;;;20.13;12.60;;;3.10;20.70;;;;;;5090504;28;20557;-75
2021/03/25 04:49:36;;;;;;;24.98;13.20;;;3.10;20.30;;;;;;5093090;28;20382;-74
2021/03/25 04:52:08;;;;;;;22.27;13.27;;;3.20;20.40;;;;;;5087453;28;20079;-75
2021/03/25 04:54:37;;;;;;;22.27;12.18;;;3.10;20.40;;;;;;5092191;28;20048;-75
2021/03/25 04:57:10;;;;;;;20.50;12.43;;;3.10;20.60;;;;;;5092562;28;20070;-77
2021/03/25 04:59:38;;;;;;;20.88;12.02;;;3.10;19.70;;;;;;5087961;28;20046;-76
2021/03/25 05:02:12;;;;;;;23.35;12.25;;;3.00;19.60;;;;;;5087562;28;20138;-76
2021/03/25 05:04:43;;;;;;;19.70;12.82;;;3.00;19.80;;;;;;5091339;28;20051;-74
2021/03/25 05:07:17;;;;;;;20.83;12.95;;;3.00;19.70;;;;;;5092024;28;20508;-75
2021/03/25 05:09:44;;;;;;;21.77;14.10;;;2.90;20.10;;;;;;5090077;28;20124;-79
2021/03/25 05:12:15;;;;;;;23.60;13.48;;;3.00;21.00;;;;;;5087307;28;20066;-74
2021/03/25 05:14:42;;;;;;;22.33;12.40;;;2.90;20.50;;;;;;5088578;28;20060;-75
2021/03/25 05:17:23;;;;;;;27.33;14.27;;;3.00;21.20;;;;;;5090978;28;20059;-75
2021/03/25 05:19:57;;;;;;;18.77;13.63;;;3.00;20.80;;;;;;5086030;28;20076;-77
2021/03/25 05:22:30;;;;;;;20.95;12.32;;;3.00;20.50;;;;;;5086401;28;20705;-75
2021/03/25 05:25:05;;;;;;;21.27;13.25;;;3.00;20.20;;;;;;5089961;28;20498;-75
2021/03/25 05:27:35;;;;;;;22.27;12.13;;;3.10;20.30;;;;;;5090308;28;20048;-75
2021/03/25 05:30:07;;;;;;;23.35;12.95;;;3.20;19.30;;;;;;5088406;28;20055;-75
2021/03/25 05:32:39;;;;;;;20.65;12.40;;;3.30;18.40;;;;;;5088493;28;20059;-76
2021/03/25 05:35:12;;;;;;;18.33;12.45;;;3.40;18.10;;;;;;5090026;28;20498;-76
2021/03/25 05:37:39;;;;;;;19.60;11.70;;;3.60;16.80;;;;;;5087824;28;20048;-78
2021/03/25 05:40:15;;;;;;;19.23;11.38;;;3.70;15.40;;;;;;5087449;28;20934;-76
2021/03/25 05:42:50;;;;;;;20.23;10.90;;;3.70;15.30;;;;;;5089401;28;20581;-75
2021/03/25 05:45:32;;;;;;;17.65;11.55;;;3.80;15.30;;;;;;5087095;28;20060;-75
2021/03/25 05:48:14;;;;;;;23.83;11.25;;;3.80;14.20;;;;;;5087396;28;20048;-77
2021/03/25 05:50:51;;;;;;;17.85;11.23;;;3.90;13.40;;;;;;5084172;28;20089;-75
2021/03/25 05:53:34;;;;;;;15.65;10.68;;;4.00;13.00;;;;;;5091117;28;20122;-76
2021/03/25 05:56:13;;;;;;;23.60;11.60;;;4.00;12.90;;;;;;5090501;28;20506;-75
2021/03/25 05:58:45;;;;;;;21.33;11.70;;;4.10;12.30;;;;;;5084354;28;20040;-75
2021/03/25 06:01:31;;;;;;;19.63;10.88;;;4.10;11.90;;;;;;5081166;28;20048;-75
2021/03/25 06:04:03;;;;;;;20.05;11.35;;;4.20;11.20;;;;;;5089667;28;20052;-75
2021/03/25 06:06:45;;;;;;;19.88;11.50;;;4.30;10.90;;;;;;5089969;28;20517;-75
2021/03/25 06:09:19;;;;;;;21.55;10.18;;;4.40;10.40;;;;;;5090585;28;20097;-76
2021/03/25 06:11:57;;;;;;;17.75;11.25;;;4.50;9.90;;;;;;5085751;28;20052;-75
2021/03/25 06:14:53;;;;;;;19.77;11.00;;;4.70;8.80;;;;;;5085154;28;20059;-77
2021/03/25 06:17:40;;;;;;;18.65;10.77;;;4.70;8.80;;;;;;5086512;28;20055;-75
2021/03/25 06:20:28;;;;;;;19.27;10.27;;;4.90;8.20;;;;;;5087814;28;20071;-77
2021/03/25 06:23:17;;;;;;;15.30;9.95;;;4.90;7.00;;;;;;5083272;28;20133;-76
2021/03/25 06:25:55;;;;;;;20.42;10.50;;;5.10;6.50;;;;;;5086356;28;20056;-76
2021/03/25 06:28:32;;;;;;;16.17;10.18;;;5.20;5.70;;;;;;5083341;28;20464;-76
2021/03/25 06:31:28;;;;;;;21.90;10.38;;;5.40;4.90;;;;;;5084221;28;20117;-77
2021/03/25 06:34:01;;;;;;;25.58;10.63;;;5.40;3.90;;;;;;5089674;28;20486;-76
2021/03/25 06:36:45;;;;;;;21.42;10.70;;;5.60;3.00;;;;;;5088166;28;20044;-74
2021/03/25 06:39:18;;;;;;;;;;;5.70;2.40;;;;;;5090575;28;20040;-76
2021/03/25 06:41:50;;;;;;;19.50;10.23;;;5.80;2.10;;;;;;5084866;28;19934;-76
2021/03/25 06:44:23;;;;;;;17.42;10.18;;;6.00;1.50;;;;;;5088155;28;20052;-76
2021/03/25 06:47:01;;;;;;;16.75;10.13;;;6.00;1.00;;;;;;5088317;28;20134;-76
2021/03/25 06:49:37;;;;;;;22.08;11.93;;;6.10;1.00;;;;;;5090467;28;20097;-76
2021/03/25 06:52:15;;;;;;;20.90;9.95;;;6.20;1.00;;;;;;5082069;28;20060;-76
2021/03/25 06:54:44;;;;;;;20.08;10.70;;;6.30;1.00;;;;;;5089694;28;20207;-76
2021/03/25 06:57:17;;;;;;;17.45;9.90;;;6.40;1.00;;;;;;5090484;28;20054;-76
2021/03/25 06:59:45;;;;;;;21.35;10.65;;;6.30;1.00;;;;;;5085692;28;20157;-79
2021/03/25 07:02:20;;;;;;;23.15;10.75;;;6.50;1.00;;;;;;5085523;28;20509;-75
2021/03/25 07:04:50;;;;;;;15.80;9.85;;;6.40;1.00;;;;;;5089492;28;20074;-76
2021/03/25 07:07:22;;;;;;;18.63;10.27;;;6.30;1.00;;;;;;5090249;28;20099;-76
2021/03/25 07:09:53;;;;;;;16.42;10.57;;;6.30;1.00;;;;;;5087341;28;20150;-77
2021/03/25 07:12:23;;;;;;;17.92;10.70;;;6.50;1.00;;;;;;5089060;28;20113;-76
2021/03/25 07:14:51;;;;;;;25.63;10.48;;;6.60;1.00;;;;;;5089074;28;20135;-76
2021/03/25 07:17:28;;;;;;;15.10;9.68;;;6.70;1.00;;;;;;5087058;28;20083;-77
2021/03/25 07:19:56;;;;;;;16.35;9.98;;;6.50;1.00;;;;;;5087162;28;20138;-76
2021/03/25 07:22:25;;;;;;;18.60;9.68;;;6.60;1.00;;;;;;5087489;28;20054;-76
2021/03/25 07:25:18;;;;;;;23.08;10.52;;;6.90;1.00;;;;;;5093788;28;20730;-76
2021/03/25 07:27:46;;;;;;;16.00;10.07;;;7.10;1.00;;;;;;5090548;28;20056;-76
2021/03/25 07:30:45;;;;;;;16.23;10.73;;;7.20;1.00;;;;;;5086729;28;20048;-79
2021/03/25 07:33:16;;;;;;;18.17;9.52;;;7.40;1.00;;;;;;5092780;28;20051;-76
2021/03/25 07:35:46;;;;;;;19.23;9.77;;;7.40;1.00;;;;;;5092688;28;20073;-75
2021/03/25 07:38:25;;;;;;;17.05;10.07;;;7.60;1.00;;;;;;5093779;28;20048;-76
2021/03/25 07:41:15;;;;;;;17.35;9.75;;;7.70;1.00;;;;;;5086586;28;20134;-76
2021/03/25 07:44:01;;;;;;;15.20;9.73;;;7.80;1.00;;;;;;5093251;28;20048;-76
2021/03/25 07:46:33;;;;;;;16.85;10.18;;;8.00;1.00;;;;;;5092878;28;20052;-76
2021/03/25 07:49:14;;;;;;;18.48;10.52;;;8.20;1.00;;;;;;5090074;28;20097;-76
2021/03/25 07:51:52;;;;;;;14.05;9.15;;;8.30;1.00;;;;;;5088019;28;20051;-76
2021/03/25 07:54:27;;;;;;;14.50;9.48;;;8.30;1.00;;;;;;5089140;28;20052;-77
2021/03/25 07:57:00;;;;;;;;;;;8.30;1.00;;;;;;5093115;28;20048;-77
2021/03/25 07:59:29;;;;;;;29.98;10.68;;;8.60;1.00;;;;;;5091631;28;19924;-76
2021/03/25 08:01:58;;;;;;;14.95;9.90;;;8.70;1.00;;;;;;5085504;28;20144;-77
2021/03/25 08:04:27;;;;;;;15.60;9.30;;;8.90;1.00;;;;;;5093364;28;20497;-77
2021/03/25 08:07:07;;;;;;;21.52;10.63;;;9.20;1.00;;;;;;5092609;28;20047;-78
2021/03/25 08:09:43;;;;;;;14.43;8.63;;;9.30;1.00;;;;;;5093554;28;20082;-77
2021/03/25 08:12:21;;;;;;;12.75;8.15;;;9.30;1.00;;;;;;5085139;28;20143;-77
2021/03/25 08:14:48;;;;;;;16.15;9.73;;;9.40;1.00;;;;;;5089954;28;20040;-79
2021/03/25 08:17:26;;;;;;;14.98;8.13;;;9.60;1.00;;;;;;5092779;28;20438;-75
2021/03/25 08:20:02;;;;;;;23.20;8.65;;;9.80;1.00;;;;;;5088606;28;20044;-76
2021/03/25 08:22:45;;;;;;;13.25;7.93;;;10.10;1.00;;;;;;5086300;28;20040;-75
2021/03/25 08:25:34;;;;;;;15.30;7.57;;;10.10;1.00;;;;;;5087678;28;20054;-76
2021/03/25 08:28:22;;;;;;;19.75;9.40;;;10.30;1.00;;;;;;5091716;28;20047;-76
2021/03/25 08:30:57;;;;;;;17.73;8.23;;;10.30;1.00;;;;;;5084402;28;20048;-75
2021/03/25 08:33:49;;;;;;;16.92;7.50;;;10.30;1.00;;;;;;5092933;28;20048;-80
2021/03/25 08:36:22;;;;;;;10.00;6.88;;;10.50;1.00;;;;;;5086817;28;20056;-79
2021/03/25 08:39:27;;;;;;;17.77;7.25;;;10.60;1.00;;;;;;5093390;28;20450;-69
2021/03/25 08:42:01;;;;;;;18.88;8.07;;;10.60;1.00;;;;;;5073131;28;20056;-70
2021/03/25 08:44:34;;;;;;;11.73;8.02;;;10.80;1.00;;;;;;5088683;28;20052;-69
2021/03/25 08:47:06;;;;;;;17.20;7.35;;;11.00;1.00;;;;;;5087338;28;20450;-70
2021/03/25 08:49:39;;;;;;;13.80;7.43;;;11.30;1.00;;;;;;5087264;28;20494;-70
2021/03/25 08:52:11;;;;;;;16.15;7.65;;;11.30;1.00;;;;;;5083303;28;20044;-70
2021/03/25 08:54:43;;;;;;;18.65;8.02;;;11.40;1.00;;;;;;5085688;28;20044;-70
2021/03/25 08:57:16;;;;;;;34.28;9.93;;;11.60;1.00;;;;;;5087016;28;20044;-70
2021/03/25 09:00:01;;;;;;;15.23;7.70;;;11.70;1.00;;;;;;5085553;28;20044;-70
2021/03/25 09:02:33;;;;;;;13.40;7.60;;;11.50;1.00;;;;;;5081272;28;20520;-70
2021/03/25 09:05:07;;;;;;;13.68;7.93;;;11.80;1.00;;;;;;5082058;28;20048;-70
2021/03/25 09:07:36;;;;;;;11.97;7.73;;;11.90;1.00;;;;;;5089089;28;20056;-69
2021/03/25 09:10:06;;;;;;;18.40;7.68;;;11.90;1.00;;;;;;5084331;28;20064;-70
2021/03/25 09:12:33;;;;;;;16.20;8.15;;;12.10;1.00;;;;;;5086484;28;20044;-70
2021/03/25 09:15:03;;;;;;;14.77;8.10;;;12.60;1.00;;;;;;5086071;28;20055;-70
2021/03/25 09:17:36;;;;;;;17.88;7.72;;;12.50;1.00;;;;;;5089085;28;20044;-70
2021/03/25 09:20:09;;;;;;;11.63;7.65;;;12.50;1.00;;;;;;5086057;28;20048;-70
2021/03/25 09:22:52;;;;;;;13.07;8.50;;;12.20;1.00;;;;;;5085036;28;20051;-71
2021/03/25 09:25:38;;;;;;;12.65;7.28;;;12.20;1.00;;;;;;5088098;28;20066;-70
2021/03/25 09:28:15;;;;;;;15.15;8.10;;;12.50;1.00;;;;;;5088976;28;20048;-71
2021/03/25 09:31:06;;;;;;;13.75;8.00;;;12.80;1.00;;;;;;5082069;28;20063;-70
2021/03/25 09:33:50;;;;;;;15.85;8.05;;;13.20;1.00;;;;;;5088653;28;20122;-70
2021/03/25 09:36:43;;;;;;;14.77;7.57;;;13.30;1.00;;;;;;5083992;28;20044;-71
2021/03/25 09:39:27;;;;;;;11.93;7.43;;;13.50;1.00;;;;;;5088297;28;20047;-70
2021/03/25 09:41:55;;;;;;;14.55;7.50;;;13.80;1.00;;;;;;5081136;28;20127;-71
2021/03/25 09:44:38;;;;;;;14.73;8.30;;;13.90;1.00;;;;;;5088555;28;20043;-71
2021/03/25 09:47:28;;;;;;;21.73;7.43;;;13.90;1.00;;;;;;5086068;28;20052;-71
2021/03/25 09:50:17;;;;;;;10.38;7.47;;;13.80;1.00;;;;;;5083432;28;20072;-71
2021/03/25 09:52:47;;;;;;;13.32;7.00;;;13.80;1.00;;;;;;5084927;28;20054;-71
2021/03/25 09:55:19;;;;;;;15.98;7.70;;;13.70;1.00;;;;;;5086180;28;20052;-71
2021/03/25 09:57:52;;;;;;;12.50;7.07;;;14.10;1.00;;;;;;5085501;28;20135;-71
2021/03/25 10:00:55;;;;;;;13.63;6.47;;;14.30;1.00;;;;;;5084545;28;20055;-72
2021/03/25 10:03:57;;;;;;;11.77;7.03;;;14.50;1.00;;;;;;5087198;28;20044;-71
2021/03/25 10:06:44;;;;;;;13.10;6.93;;;14.60;1.00;;;;;;5083369;28;20064;-70
2021/03/25 10:09:11;;;;;;;17.15;7.20;;;14.50;1.00;;;;;;5084987;28;20042;-70
2021/03/25 10:11:47;;;;;;;11.13;6.40;;;14.30;1.00;;;;;;5079093;28;20501;-70
2021/03/25 10:14:43;;;;;;;10.73;5.95;;;14.50;1.00;;;;;;5083916;28;20139;-69
2021/03/25 10:17:34;;;;;;;14.90;6.80;;;14.50;1.00;;;;;;5083608;28;20375;-69
2021/03/25 10:20:01;;;;;;;11.60;6.60;;;14.70;1.00;;;;;;5080904;28;20048;-70
2021/03/25 10:22:29;;;;;;;11.48;6.78;;;14.90;1.00;;;;;;5083108;28;20056;-70
2021/03/25 10:24:58;;;;;;;15.13;7.10;;;15.20;1.00;;;;;;5079381;28;20052;-71
2021/03/25 10:27:34;;;;;;;12.35;7.10;;;14.80;1.00;;;;;;5085821;28;20048;-69
2021/03/25 10:30:21;;;;;;;14.02;6.88;;;14.70;1.00;;;;;;5077795;28;20048;-70
2021/03/25 10:32:48;;;;;;;13.38;7.22;;;14.50;1.00;;;;;;5082076;28;20052;-69
2021/03/25 10:35:23;;;;;;;12.57;7.10;;;14.60;1.00;;;;;;5082573;28;20053;-69
2021/03/25 10:37:52;;;;;;;;;;;14.80;1.00;;;;;;5087563;28;20048;-70
2021/03/25 10:40:23;;;;;;;11.95;7.20;;;14.80;1.00;;;;;;5081507;28;19924;-70
2021/03/25 10:42:59;;;;;;;12.52;7.57;;;14.90;1.00;;;;;;5084635;28;20051;-69
2021/03/25 10:45:36;;;;;;;10.80;6.88;;;15.10;1.00;;;;;;5087180;28;20048;-75
2021/03/25 10:48:28;;;;;;;11.95;6.80;;;15.10;1.00;;;;;;5086969;28;20075;-77
2021/03/25 10:50:59;;;;;;;12.85;7.95;;;15.10;1.00;;;;;;5080401;28;20051;-76
2021/03/25 10:53:34;;;;;;;12.73;7.30;;;15.10;1.00;;;;;;5085015;28;20424;-76
2021/03/25 10:56:13;;;;;;;13.82;7.22;;;15.10;1.00;;;;;;5084277;28;20051;-77
2021/03/25 10:58:43;;;;;;;13.60;6.63;;;15.20;1.00;;;;;;5084883;28;20065;-77
2021/03/25 11:01:18;;;;;;;12.40;7.45;;;15.40;1.00;;;;;;5080569;28;20059;-75
2021/03/25 11:03:45;;;;;;;13.35;7.65;;;15.50;1.00;;;;;;5086192;28;20044;-75
2021/03/25 11:06:20;;;;;;;10.93;6.68;;;15.20;1.00;;;;;;5087183;28;20463;-77
2021/03/25 11:08:48;;;;;;;11.60;6.82;;;15.40;1.00;;;;;;5086236;28;20044;-76
2021/03/25 11:11:18;;;;;;;16.75;7.30;;;15.60;1.00;;;;;;5081720;28;20095;-77
2021/03/25 11:13:55;;;;;;;10.50;6.68;;;15.40;1.00;;;;;;5086636;28;20054;-76
2021/03/25 11:16:24;;;;;;;12.40;6.90;;;15.30;1.00;;;;;;5087347;28;20052;-76
2021/03/25 11:18:57;;;;;;;13.05;6.93;;;15.30;1.00;;;;;;5087583;28;20069;-77
2021/03/25 11:21:30;;;;;;;12.32;7.00;;;15.30;1.00;;;;;;5085678;28;20135;-76
2021/03/25 11:24:03;;;;;;;11.87;6.57;;;15.40;1.00;;;;;;5086155;28;20131;-75
2021/03/25 11:26:30;;;;;;;12.05;7.63;;;15.80;1.00;;;;;;5081956;28;20302;-76
2021/03/25 11:28:58;;;;;;;14.00;7.45;;;15.70;1.00;;;;;;5078375;28;20040;-77
2021/03/25 11:31:28;;;;;;;12.20;6.47;;;15.90;1.00;;;;;;5079402;28;20524;-72
2021/03/25 11:33:56;;;;;;;14.30;7.88;;;15.70;1.00;;;;;;5076213;28;20134;-72
2021/03/25 11:36:38;;;;;;;14.02;6.97;;;15.80;1.00;;;;;;5080764;28;20129;-73
2021/03/25 11:39:20;;;;;;;14.98;7.72;;;15.40;1.00;;;;;;5079909;28;20046;-73
2021/03/25 11:41:48;;;;;;;16.15;6.93;;;15.80;1.00;;;;;;5076690;28;20048;-75
2021/03/25 11:44:38;;;;;;;12.13;7.13;;;15.60;1.00;;;;;;5078217;28;20056;-75
2021/03/25 11:47:33;;;;;;;18.63;6.97;;;16.00;1.00;;;;;;5080680;28;20084;-74
2021/03/25 11:50:04;;;;;;;12.93;6.28;;;16.00;1.00;;;;;;5076921;28;20988;-74
2021/03/25 11:52:41;;;;;;;15.55;6.93;;;16.20;1.00;;;;;;5083058;28;20063;-74
2021/03/25 11:55:23;;;;;;;12.75;6.80;;;16.10;1.00;;;;;;5080329;28;20115;-73
2021/03/25 11:57:51;;;;;;;12.73;6.32;;;16.40;1.00;;;;;;5079094;28;20046;-71
2021/03/25 12:00:24;;;;;;;12.23;6.80;;;16.20;1.00;;;;;;5080706;28;20044;-75
2021/03/25 12:02:53;;;;;;;10.23;5.85;;;16.40;1.00;;;;;;5082633;28;20057;-76
2021/03/25 12:05:36;;;;;;;12.80;6.57;;;16.70;1.00;;;;;;5084509;28;20075;-76
2021/03/25 12:08:05;;;;;;;11.20;6.53;;;16.90;1.00;;;;;;5084585;28;20467;-74
2021/03/25 12:10:34;;;;;;;12.77;6.03;;;16.90;1.00;;;;;;5083974;28;20036;-73
2021/03/25 12:13:01;;;;;;;10.35;5.68;;;17.20;1.00;;;;;;5087343;28;20044;-74
2021/03/25 12:15:29;;;;;;;9.85;5.78;;;17.20;1.00;;;;;;5088479;28;20056;-74
2021/03/25 12:17:59;;;;;;;10.68;6.13;;;16.90;1.00;;;;;;5084369;28;20053;-75
2021/03/25 12:20:28;;;;;;;10.45;5.78;;;16.80;1.00;;;;;;5083655;28;20060;-75
2021/03/25 12:23:03;;;;;;;11.43;5.75;;;16.80;1.00;;;;;;5083827;28;20074;-76
2021/03/25 12:25:39;;;;;;;9.60;5.95;;;17.10;1.00;;;;;;5087081;28;20044;-73
2021/03/25 12:28:07;;;;;;;11.27;6.10;;;16.90;1.00;;;;;;5087057;28;20134;-75
2021/03/25 12:30:34;;;;;;;9.30;5.70;;;17.00;1.00;;;;;;5083724;28;20048;-75
2021/03/25 12:33:01;;;;;;;9.57;5.60;;;16.80;1.00;;;;;;5084913;28;20048;-75
2021/03/25 12:35:28;;;;;;;10.90;6.20;;;16.60;1.00;;;;;;5085684;28;20076;-75
2021/03/25 12:37:55;;;;;;;9.68;5.80;;;16.80;1.00;;;;;;5088267;28;20119;-76
2021/03/25 12:40:27;;;;;;;10.13;5.45;;;16.60;1.00;;;;;;5088188;28;20040;-75
2021/03/25 12:42:56;;;;;;;9.68;5.97;;;16.70;1.00;;;;;;5085296;28;20055;-75
2021/03/25 12:45:30;;;;;;;12.10;5.63;;;16.60;1.00;;;;;;5089451;28;20066;-75
2021/03/25 12:47:58;;;;;;;9.50;5.63;;;17.00;1.00;;;;;;5087836;28;20055;-75
2021/03/25 12:50:27;;;;;;;10.55;5.57;;;16.90;1.00;;;;;;5083341;28;20048;-75
2021/03/25 12:52:54;;;;;;;12.95;5.50;;;16.90;1.00;;;;;;5085134;28;20694;-75
2021/03/25 12:55:22;;;;;;;7.95;5.18;;;17.00;1.00;;;;;;5085794;28;20048;-74
2021/03/25 12:57:50;;;;;;;10.85;6.28;;;16.90;1.00;;;;;;5085287;28;20050;-74
2021/03/25 13:00:28;;;;;;;8.77;5.72;;;16.80;1.00;;;;;;5081138;28;20158;-74
2021/03/25 13:02:55;;;;;;;10.43;5.75;;;16.50;1.00;;;;;;5079504;28;20045;-75
2021/03/25 13:05:24;;;;;;;17.17;5.85;;;16.90;1.00;;;;;;5088192;28;20056;-73
2021/03/25 13:08:04;;;;;;;10.32;5.82;;;16.70;1.00;;;;;;5084150;28;20060;-74
2021/03/25 13:10:34;;;;;;;17.50;6.13;;;16.60;1.00;;;;;;5082403;28;20040;-75
2021/03/25 13:13:01;;;;;;;13.52;6.60;;;16.50;1.00;;;;;;5083316;28;20060;-74
2021/03/25 13:15:30;;;;;;;12.63;6.18;;;16.60;1.00;;;;;;5085434;28;20533;-75
2021/03/25 13:17:58;;;;;;;11.38;5.82;;;16.50;1.00;;;;;;5083217;28;20502;-74
2021/03/25 13:20:40;;;;;;;10.80;5.35;;;16.80;1.00;;;;;;5075872;28;20125;-75